Terminal Aerodrome Forecast
Issued by NWS Raleigh/Durham, NC

Home | Current Version | Previous Version | Text Only | Print | Product List | Glossary On
Versions: 1 2 3 4 5 6 7 8 9 10 11 12 13 14 15 16 17 18 19 20 21 22 23 24 25
000
FTUS42 KRAH 152328
TAFFAY
TAF
KFAY 152328Z 1600/1624 34012G20KT 2SM -RA BR BKN035
     FM160100 33015G18KT P6SM BKN060
     FM160600 01012KT P6SM SKC
     FM161600 05014G20KT P6SM SKC=

USA.gov is the U.S. government's official web portal to all federal, state and local government web resources and services.